Time;durP1;ratioP1;P1;durP2;ratioP2;P2;SDS_P1;SDS_P2;PMS_P1;PMS_P2;Temp;Humidity;BMP_temperature;BMP_pressure;BME280_temperature;BME280_humidity;BME280_pressure;Samples;Min_cycle;Max_cycle;Signal;HPM_P1;HPM_P2
2022/05/08 00:00:32;;;;;;;10.07;8.10;;;18.10;86.90;;;;;;6341324;22;20002;-82
2022/05/08 00:02:58;;;;;;;8.82;7.65;;;18.10;86.80;;;;;;6368045;22;19998;-83
2022/05/08 00:05:27;;;;;;;10.32;8.80;;;18.00;86.60;;;;;;6366074;22;20006;-82
2022/05/08 00:07:53;;;;;;;10.20;8.85;;;17.90;86.70;;;;;;6364388;22;20027;-81
2022/05/08 00:10:19;;;;;;;8.30;7.38;;;17.80;87.10;;;;;;6341129;22;20086;-82
2022/05/08 00:12:45;;;;;;;6.95;6.18;;;17.80;87.40;;;;;;6340215;22;20006;-82
2022/05/08 00:15:11;;;;;;;7.65;6.75;;;17.80;87.60;;;;;;6368186;22;20002;-82
2022/05/08 00:17:37;;;;;;;6.55;5.40;;;17.80;87.70;;;;;;6368269;22;20059;-81
2022/05/08 00:20:05;;;;;;;8.65;6.93;;;17.80;87.60;;;;;;6369271;22;20003;-82
2022/05/08 00:22:31;;;;;;;6.85;6.10;;;17.70;87.30;;;;;;6368529;22;20018;-82
2022/05/08 00:24:56;;;;;;;5.82;5.20;;;17.80;87.50;;;;;;6371016;22;20417;-84
2022/05/08 00:27:22;;;;;;;5.60;5.05;;;17.80;87.60;;;;;;6369133;22;20003;-84
2022/05/08 00:29:48;;;;;;;4.90;4.50;;;17.80;87.50;;;;;;6371090;22;20003;-85
2022/05/08 00:32:14;;;;;;;4.05;3.65;;;17.80;87.30;;;;;;6370266;22;20006;-85
2022/05/08 00:34:40;;;;;;;5.80;4.32;;;17.80;87.30;;;;;;6342831;22;20432;-85
2022/05/08 00:37:05;;;;;;;8.30;4.68;;;17.90;87.00;;;;;;6369561;22;20074;-83
2022/05/08 00:39:32;;;;;;;5.18;4.28;;;17.90;86.90;;;;;;6343227;22;20465;-82
2022/05/08 00:41:59;;;;;;;4.85;3.83;;;18.00;86.90;;;;;;6341802;22;20031;-81
2022/05/08 00:44:24;;;;;;;4.90;4.40;;;18.00;86.70;;;;;;6370798;22;19999;-81
2022/05/08 00:46:50;;;;;;;5.45;4.43;;;18.00;86.50;;;;;;6370001;22;19999;-82
2022/05/08 00:49:16;;;;;;;9.82;4.40;;;18.00;86.60;;;;;;6343094;22;20006;-81
2022/05/08 00:51:48;;;;;;;5.68;5.18;;;18.00;86.80;;;;;;6342053;22;20007;-83
2022/05/08 00:54:15;;;;;;;5.20;4.68;;;17.90;86.90;;;;;;6369948;22;20010;-82
2022/05/08 00:56:42;;;;;;;4.97;4.47;;;17.80;87.40;;;;;;6340516;22;20014;-82
2022/05/08 00:59:09;;;;;;;3.95;3.50;;;17.80;87.50;;;;;;6369365;22;20005;-81
2022/05/08 01:01:35;;;;;;;4.10;3.70;;;17.80;87.50;;;;;;6370379;22;20033;-82
2022/05/08 01:04:01;;;;;;;4.45;4.03;;;17.90;87.50;;;;;;6370581;22;20002;-81
2022/05/08 01:06:29;;;;;;;4.82;4.30;;;17.90;87.30;;;;;;6369699;22;19994;-82
2022/05/08 01:08:55;;;;;;;3.65;3.35;;;17.90;87.30;;;;;;6341586;22;20073;-81
2022/05/08 01:11:21;;;;;;;8.30;4.40;;;18.00;87.20;;;;;;6371122;22;20414;-81
2022/05/08 01:13:47;;;;;;;4.55;4.15;;;18.00;87.00;;;;;;6370236;22;20002;-81
2022/05/08 01:16:16;;;;;;;3.90;3.33;;;17.90;87.50;;;;;;6369772;22;20008;-81
2022/05/08 01:18:43;;;;;;;4.60;3.63;;;17.90;87.50;;;;;;6369913;22;20002;-81
2022/05/08 01:21:12;;;;;;;4.20;3.60;;;17.90;87.40;;;;;;6369558;22;20033;-81
2022/05/08 01:23:38;;;;;;;5.00;4.40;;;17.90;87.50;;;;;;6369742;22;20003;-81
2022/05/08 01:26:04;;;;;;;4.40;4.00;;;17.90;87.20;;;;;;6369055;22;19994;-80
2022/05/08 01:28:30;;;;;;;3.63;3.33;;;17.90;87.50;;;;;;6369122;22;20062;-80
2022/05/08 01:30:56;;;;;;;4.63;3.20;;;17.80;87.60;;;;;;6368785;22;20409;-81
2022/05/08 01:33:23;;;;;;;4.90;3.90;;;17.90;87.50;;;;;;6368607;22;20408;-80
2022/05/08 01:35:49;;;;;;;5.82;3.80;;;17.90;87.30;;;;;;6369143;22;20070;-80
2022/05/08 01:38:20;;;;;;;3.42;3.13;;;17.90;87.00;;;;;;6370483;22;20030;-80
2022/05/08 01:40:45;;;;;;;4.07;3.67;;;17.80;87.30;;;;;;6370172;22;20002;-80
2022/05/08 01:43:12;;;;;;;5.03;4.53;;;17.90;87.10;;;;;;6370031;22;20302;-81
2022/05/08 01:45:39;;;;;;;3.40;3.10;;;17.90;86.90;;;;;;6370617;22;19998;-81
2022/05/08 01:48:26;;;;;;;3.80;3.17;;;17.90;87.20;;;;;;6339799;22;20009;-81
2022/05/08 01:50:56;;;;;;;3.55;2.90;;;18.00;87.20;;;;;;6370626;22;20010;-81
2022/05/08 01:53:25;;;;;;;;;;;18.00;86.90;;;;;;6369761;22;19999;-81
2022/05/08 01:55:54;;;;;;;4.32;3.42;;;18.00;87.30;;;;;;6368947;22;19898;-81
2022/05/08 01:58:21;;;;;;;3.38;2.80;;;18.00;86.80;;;;;;6370237;22;20081;-81
2022/05/08 02:00:48;;;;;;;3.35;3.05;;;18.10;86.70;;;;;;6369622;22;20075;-81
2022/05/08 02:03:14;;;;;;;5.60;3.80;;;18.10;86.80;;;;;;6342532;22;20103;-81
2022/05/08 02:05:42;;;;;;;4.18;3.15;;;18.10;86.60;;;;;;6341240;22;19999;-81
2022/05/08 02:08:08;;;;;;;4.75;3.33;;;18.10;86.60;;;;;;6369384;22;20013;-81
2022/05/08 02:10:34;;;;;;;3.63;2.85;;;18.10;86.60;;;;;;6368940;22;20082;-83
2022/05/08 02:12:59;;;;;;;3.28;2.97;;;18.10;86.60;;;;;;6369552;22;20029;-80
2022/05/08 02:15:31;;;;;;;6.47;3.88;;;18.10;86.50;;;;;;6369040;22;20006;-80
2022/05/08 02:18:01;;;;;;;4.28;3.15;;;18.00;86.40;;;;;;6369917;22;20002;-80
2022/05/08 02:20:28;;;;;;;4.70;3.05;;;17.90;86.70;;;;;;6369628;22;20066;-81
2022/05/08 02:22:53;;;;;;;2.70;2.50;;;18.00;86.70;;;;;;6342713;22;20014;-82
2022/05/08 02:25:19;;;;;;;4.03;3.60;;;17.90;86.70;;;;;;6369188;22;19998;-81
2022/05/08 02:27:49;;;;;;;3.42;2.78;;;18.00;86.60;;;;;;6341664;22;20005;-81
2022/05/08 02:30:16;;;;;;;3.33;3.05;;;18.00;86.70;;;;;;6369317;22;20017;-82
2022/05/08 02:32:42;;;;;;;2.97;2.78;;;17.90;86.80;;;;;;6369320;22;20082;-82
2022/05/08 02:35:09;;;;;;;5.38;3.08;;;17.90;86.80;;;;;;6370190;22;20002;-81
2022/05/08 02:37:39;;;;;;;3.72;3.10;;;17.80;86.70;;;;;;6368852;22;20085;-82
2022/05/08 02:40:08;;;;;;;5.40;3.50;;;17.90;87.00;;;;;;6369636;22;19998;-81
2022/05/08 02:42:38;;;;;;;3.55;3.25;;;17.80;87.00;;;;;;6368012;22;20023;-81
2022/05/08 02:45:06;;;;;;;3.03;2.75;;;17.70;87.10;;;;;;6340531;22;20002;-81
2022/05/08 02:47:33;;;;;;;6.43;3.95;;;17.70;87.30;;;;;;6341150;22;20381;-81
2022/05/08 02:49:58;;;;;;;3.00;2.80;;;17.60;87.40;;;;;;6369818;22;20017;-81
2022/05/08 02:52:24;;;;;;;3.15;2.90;;;17.60;87.70;;;;;;6369235;22;19998;-84
2022/05/08 02:54:50;;;;;;;3.03;2.70;;;17.50;87.80;;;;;;6369380;22;20003;-82
2022/05/08 03:00:08;;;;;;;2.63;2.42;;;17.40;87.70;;;;;;6369198;22;20751;-83
2022/05/08 03:02:35;;;;;;;3.70;3.40;;;17.50;87.80;;;;;;6368202;22;19994;-82
2022/05/08 03:05:05;;;;;;;3.35;2.42;;;17.50;87.40;;;;;;6341924;22;20336;-81
2022/05/08 03:07:31;;;;;;;3.75;2.20;;;17.50;87.70;;;;;;6368697;22;20405;-82
2022/05/08 03:09:57;;;;;;;2.90;2.47;;;17.50;87.50;;;;;;6368975;22;20013;-81
2022/05/08 03:12:23;;;;;;;4.50;3.40;;;17.50;87.30;;;;;;6369003;22;20397;-80
2022/05/08 03:14:49;;;;;;;4.72;3.40;;;17.40;87.00;;;;;;6369936;22;20397;-80
2022/05/08 03:17:16;;;;;;;2.80;2.60;;;17.40;86.80;;;;;;6340618;22;20003;-80
2022/05/08 03:19:42;;;;;;;2.40;2.20;;;17.40;87.40;;;;;;6342370;22;20420;-82
2022/05/08 03:22:07;;;;;;;2.47;2.28;;;17.40;87.10;;;;;;6368011;22;20077;-81
2022/05/08 03:24:33;;;;;;;2.80;2.47;;;17.50;87.00;;;;;;6369425;22;19994;-80
2022/05/08 03:26:59;;;;;;;2.97;2.67;;;17.60;86.80;;;;;;6368299;22;19994;-80
2022/05/08 03:29:26;;;;;;;3.67;3.25;;;17.60;86.30;;;;;;6369251;22;19999;-80
2022/05/08 03:31:52;;;;;;;2.60;2.20;;;17.60;86.40;;;;;;6369956;22;19999;-81
2022/05/08 03:34:18;;;;;;;3.58;2.25;;;17.60;86.60;;;;;;6368726;22;20154;-81
2022/05/08 03:36:44;;;;;;;3.20;2.90;;;17.60;86.40;;;;;;6368986;22;20477;-80
2022/05/08 03:39:11;;;;;;;3.83;2.85;;;17.70;86.10;;;;;;6367805;22;20069;-81
2022/05/08 03:41:37;;;;;;;2.78;2.42;;;17.60;85.70;;;;;;6369854;22;20003;-81
2022/05/08 03:44:03;;;;;;;3.90;2.30;;;17.60;86.00;;;;;;6368294;22;19998;-82
2022/05/08 03:46:29;;;;;;;2.30;2.10;;;17.70;86.10;;;;;;6369898;22;20002;-81
2022/05/08 03:48:55;;;;;;;2.97;2.13;;;17.70;85.90;;;;;;6367488;22;20002;-81
2022/05/08 03:51:21;;;;;;;3.55;2.38;;;17.80;86.00;;;;;;6369861;22;20383;-81
2022/05/08 03:53:47;;;;;;;2.30;2.10;;;17.80;85.90;;;;;;6368101;22;20030;-81
2022/05/08 03:56:12;;;;;;;1.98;1.88;;;17.70;85.80;;;;;;6369245;22;20081;-83
2022/05/08 03:58:39;;;;;;;2.75;2.25;;;17.80;85.40;;;;;;6339514;22;20002;-80
2022/05/08 04:01:05;;;;;;;2.08;1.88;;;17.80;85.50;;;;;;6366388;22;20029;-82
2022/05/08 04:03:30;;;;;;;2.25;2.05;;;17.80;85.30;;;;;;6369519;22;20417;-85
2022/05/08 04:05:56;;;;;;;2.20;2.00;;;17.80;85.30;;;;;;6368584;22;20301;-82
2022/05/08 04:08:21;;;;;;;2.17;1.92;;;17.80;85.10;;;;;;6369268;22;20006;-83
2022/05/08 04:10:47;;;;;;;2.13;1.55;;;17.70;84.20;;;;;;6368693;22;19999;-83
2022/05/08 04:13:13;;;;;;;3.15;1.95;;;17.80;84.90;;;;;;6341388;22;20003;-84
2022/05/08 04:18:22;;;;;;;2.40;2.20;;;17.80;84.70;;;;;;6370112;22;20059;-85
2022/05/08 04:20:48;;;;;;;1.70;1.60;;;17.80;84.00;;;;;;6368721;22;20382;-84
2022/05/08 04:25:58;;;;;;;2.42;2.22;;;17.80;84.10;;;;;;6369032;22;20055;-85
2022/05/08 04:28:24;;;;;;;2.40;2.17;;;17.70;83.40;;;;;;6369416;22;20003;-85
2022/05/08 04:30:51;;;;;;;2.40;2.05;;;17.70;83.70;;;;;;6368045;22;20078;-83
2022/05/08 04:33:16;;;;;;;3.38;2.30;;;17.70;83.70;;;;;;6368295;22;20003;-84
2022/05/08 04:35:42;;;;;;;2.67;2.05;;;17.80;83.10;;;;;;6368540;22;20094;-82
2022/05/08 04:38:08;;;;;;;2.72;2.40;;;17.80;83.40;;;;;;6341218;22;20002;-83
2022/05/08 04:40:34;;;;;;;3.47;2.70;;;17.80;83.50;;;;;;6368423;22;20063;-82
2022/05/08 04:43:00;;;;;;;2.55;2.00;;;17.80;83.70;;;;;;6340807;22;20374;-83
2022/05/08 04:45:25;;;;;;;4.70;2.80;;;17.90;83.60;;;;;;6368734;22;20027;-81
2022/05/08 04:47:51;;;;;;;3.20;1.92;;;17.80;82.70;;;;;;6369474;22;20002;-81
2022/05/08 04:50:17;;;;;;;2.90;2.60;;;17.90;83.40;;;;;;6368777;22;20438;-81
2022/05/08 04:52:43;;;;;;;3.47;2.72;;;17.90;82.80;;;;;;6339394;22;20034;-82
2022/05/08 04:55:09;;;;;;;3.63;2.72;;;17.90;82.60;;;;;;6368924;22;20003;-82
2022/05/08 04:57:34;;;;;;;2.25;2.05;;;17.90;82.90;;;;;;6367090;22;20082;-82
2022/05/08 05:00:00;;;;;;;2.50;2.20;;;18.00;82.70;;;;;;6369193;22;20085;-82
2022/05/08 05:02:26;;;;;;;2.30;2.20;;;18.10;82.50;;;;;;6367420;22;19995;-83
2022/05/08 05:04:52;;;;;;;2.50;2.30;;;18.10;82.00;;;;;;6340764;22;20002;-83
2022/05/08 05:07:17;;;;;;;4.55;3.30;;;18.10;82.30;;;;;;6368278;22;20006;-84
2022/05/08 05:09:44;;;;;;;2.70;2.10;;;18.10;81.10;;;;;;6370178;22;20022;-84
2022/05/08 05:12:10;;;;;;;2.30;2.10;;;18.20;81.70;;;;;;6369916;22;20328;-87
2022/05/08 05:14:36;;;;;;;2.20;2.00;;;18.20;81.30;;;;;;6371483;22;20425;-86
2022/05/08 05:17:02;;;;;;;3.20;2.90;;;18.10;81.70;;;;;;6370549;22;20025;-86
2022/05/08 05:19:28;;;;;;;3.10;2.58;;;18.20;80.70;;;;;;6343114;22;20003;-86
2022/05/08 05:21:54;;;;;;;2.75;2.47;;;18.20;81.10;;;;;;6371921;22;20062;-87
2022/05/08 05:24:19;;;;;;;2.88;2.60;;;18.30;81.00;;;;;;6370423;22;19999;-84
2022/05/08 05:26:45;;;;;;;2.40;2.13;;;18.30;81.00;;;;;;6371075;22;19999;-84
2022/05/08 05:29:11;;;;;;;2.35;2.08;;;18.30;81.10;;;;;;6371374;22;20052;-86
2022/05/08 05:31:36;;;;;;;3.65;2.00;;;18.40;81.10;;;;;;6370926;22;20458;-87
2022/05/08 05:34:02;;;;;;;2.13;1.92;;;18.30;81.00;;;;;;6368897;22;20436;-82
2022/05/08 05:36:27;;;;;;;3.22;2.20;;;18.30;81.00;;;;;;6369227;22;19998;-82
2022/05/08 05:38:53;;;;;;;3.40;2.50;;;18.40;81.00;;;;;;6370504;22;19998;-81
2022/05/08 05:41:19;;;;;;;4.57;1.90;;;18.30;79.90;;;;;;6370074;22;20078;-81
2022/05/08 05:43:44;;;;;;;2.42;2.10;;;18.40;80.30;;;;;;6369921;22;20078;-81
2022/05/08 05:48:54;;;;;;;4.53;2.30;;;18.50;79.60;;;;;;6367713;22;20017;-80
2022/05/08 05:51:20;;;;;;;2.60;2.03;;;18.50;79.70;;;;;;6369754;22;20011;-80
2022/05/08 05:53:46;;;;;;;2.53;2.33;;;18.50;79.80;;;;;;6370068;22;19998;-80
2022/05/08 05:56:11;;;;;;;2.47;2.10;;;18.50;78.70;;;;;;6369436;22;20050;-80
2022/05/08 05:58:37;;;;;;;2.40;2.20;;;18.60;79.30;;;;;;6369033;22;20002;-80
2022/05/08 06:01:03;;;;;;;3.67;2.25;;;18.70;79.20;;;;;;6369316;22;20321;-80
2022/05/08 06:03:28;;;;;;;2.70;1.98;;;18.70;77.70;;;;;;6369564;22;20044;-80
2022/05/08 06:05:54;;;;;;;3.15;2.00;;;18.70;78.40;;;;;;6368379;22;20024;-79
2022/05/08 06:08:20;;;;;;;2.95;2.40;;;18.60;77.90;;;;;;6341616;22;20034;-82
2022/05/08 06:10:45;;;;;;;2.47;2.28;;;18.60;77.40;;;;;;6368540;22;20022;-78
2022/05/08 06:13:12;;;;;;;4.00;3.28;;;18.60;77.50;;;;;;6369226;22;20006;-80
2022/05/08 06:15:38;;;;;;;8.68;3.10;;;18.70;77.70;;;;;;6341421;22;20006;-78
2022/05/08 06:18:04;;;;;;;2.97;2.55;;;18.80;79.40;;;;;;6369249;22;19999;-82
2022/05/08 06:20:32;;;;;;;3.58;3.28;;;18.80;78.30;;;;;;6340887;22;20002;-79
2022/05/08 06:22:58;;;;;;;4.88;2.53;;;18.80;77.40;;;;;;6368868;22;20312;-83
2022/05/08 06:25:24;;;;;;;4.13;3.72;;;18.90;78.10;;;;;;6369097;22;20009;-80
2022/05/08 06:27:49;;;;;;;4.70;3.13;;;18.90;76.90;;;;;;6368057;22;20004;-82
2022/05/08 06:30:15;;;;;;;4.05;3.65;;;18.90;77.70;;;;;;6367009;22;20144;-83
2022/05/08 06:32:42;;;;;;;3.25;2.95;;;19.00;77.20;;;;;;6340334;22;20006;-80
2022/05/08 06:35:08;;;;;;;3.90;3.47;;;19.00;77.60;;;;;;6368173;22;20343;-79
2022/05/08 06:37:33;;;;;;;3.65;3.22;;;19.00;76.70;;;;;;6341870;22;20428;-80
2022/05/08 06:39:59;;;;;;;6.30;4.30;;;19.10;77.20;;;;;;6369667;22;20033;-80
2022/05/08 06:42:25;;;;;;;5.38;4.85;;;19.10;76.70;;;;;;6369981;22;20033;-79
2022/05/08 06:44:50;;;;;;;3.80;2.90;;;19.10;75.90;;;;;;6370313;22;20025;-83
2022/05/08 06:47:16;;;;;;;7.00;3.80;;;19.20;76.40;;;;;;6370232;22;19998;-77
2022/05/08 06:49:42;;;;;;;4.68;3.22;;;19.20;76.00;;;;;;6369872;22;20089;-78
2022/05/08 06:52:07;;;;;;;4.40;3.75;;;19.20;76.40;;;;;;6341482;22;20409;-78
2022/05/08 06:54:33;;;;;;;3.60;3.25;;;19.20;76.60;;;;;;6370068;22;20004;-79
2022/05/08 06:56:59;;;;;;;3.55;3.20;;;19.20;76.30;;;;;;6369473;22;20047;-81
2022/05/08 07:02:11;;;;;;;5.10;4.20;;;19.30;76.70;;;;;;6369559;22;20016;-79
2022/05/08 07:04:38;;;;;;;3.83;3.20;;;19.30;75.70;;;;;;6369301;22;20039;-78
2022/05/08 07:07:04;;;;;;;3.47;3.17;;;19.30;76.40;;;;;;6369488;22;20037;-83
2022/05/08 07:09:29;;;;;;;4.15;3.70;;;19.40;76.50;;;;;;6369366;22;20005;-83
2022/05/08 07:11:55;;;;;;;3.15;2.95;;;19.40;76.40;;;;;;6369273;22;20468;-83
2022/05/08 07:14:21;;;;;;;3.70;3.40;;;19.50;76.40;;;;;;6369988;22;20009;-83
2022/05/08 07:16:47;;;;;;;6.13;3.70;;;19.60;76.30;;;;;;6370289;22;20025;-83
2022/05/08 07:19:12;;;;;;;4.75;3.70;;;19.60;76.10;;;;;;6369939;22;19998;-82
2022/05/08 07:21:38;;;;;;;5.70;3.80;;;19.70;75.80;;;;;;6369855;22;20321;-83
2022/05/08 07:24:04;;;;;;;6.25;5.65;;;19.70;75.70;;;;;;6369976;22;20021;-82
2022/05/08 07:26:31;;;;;;;6.63;5.97;;;19.80;75.10;;;;;;6341944;22;20029;-83
2022/05/08 07:29:00;;;;;;;5.93;5.40;;;19.80;75.00;;;;;;6369909;22;20002;-83
2022/05/08 07:31:25;;;;;;;6.68;6.07;;;19.90;75.00;;;;;;6368576;22;20315;-82
2022/05/08 07:36:35;;;;;;;7.32;6.30;;;20.00;74.90;;;;;;6370046;22;20017;-82
2022/05/08 07:39:01;;;;;;;8.07;5.03;;;20.00;74.00;;;;;;6336816;22;20010;-83
2022/05/08 07:41:27;;;;;;;7.60;5.47;;;20.10;74.20;;;;;;6366561;22;20049;-83
2022/05/08 07:43:53;;;;;;;5.05;4.65;;;20.20;74.20;;;;;;6367623;22;20003;-83
2022/05/08 07:46:19;;;;;;;6.03;5.50;;;20.20;74.20;;;;;;6340939;22;20008;-81
2022/05/08 07:48:45;;;;;;;6.22;5.30;;;20.30;73.90;;;;;;6369554;22;19999;-81
2022/05/08 07:51:11;;;;;;;5.82;5.25;;;20.40;74.10;;;;;;6368224;22;20085;-81
2022/05/08 07:53:37;;;;;;;7.43;6.72;;;20.40;73.80;;;;;;6369153;22;20075;-81
2022/05/08 07:56:03;;;;;;;5.38;4.88;;;20.50;72.00;;;;;;6369412;22;20105;-81
2022/05/08 07:58:31;;;;;;;5.80;5.30;;;20.50;72.60;;;;;;6369665;22;20004;-82
2022/05/08 08:00:57;;;;;;;5.07;4.57;;;20.60;71.90;;;;;;6368860;22;20417;-81
2022/05/08 08:03:28;;;;;;;11.25;6.15;;;20.70;72.50;;;;;;6368648;22;20022;-81
2022/05/08 08:05:54;;;;;;;10.32;6.40;;;20.70;71.70;;;;;;6341004;22;19994;-81
2022/05/08 08:08:25;;;;;;;9.20;6.95;;;20.80;70.90;;;;;;6341709;22;20002;-81
2022/05/08 08:10:53;;;;;;;5.07;4.53;;;20.80;69.70;;;;;;6368908;22;20124;-82
2022/05/08 08:13:23;;;;;;;5.45;4.88;;;20.80;70.50;;;;;;6369318;22;20003;-81
2022/05/08 08:15:49;;;;;;;4.97;4.43;;;20.80;70.40;;;;;;6341121;22;20006;-80
2022/05/08 08:18:15;;;;;;;5.75;5.22;;;20.90;70.90;;;;;;6369555;22;20544;-81
2022/05/08 08:20:42;;;;;;;7.35;5.13;;;20.90;70.70;;;;;;6368626;22;20003;-81
2022/05/08 08:23:08;;;;;;;12.05;6.63;;;21.00;70.50;;;;;;6369075;22;19999;-81
2022/05/08 08:25:34;;;;;;;15.98;7.22;;;21.10;70.80;;;;;;6368246;22;19998;-81
2022/05/08 08:28:00;;;;;;;6.85;5.38;;;21.20;70.90;;;;;;6368882;22;20080;-81
2022/05/08 08:30:25;;;;;;;5.20;4.70;;;21.20;70.70;;;;;;6368768;22;19998;-81
2022/05/08 08:32:51;;;;;;;8.10;7.30;;;21.30;70.40;;;;;;6369275;22;20009;-81
2022/05/08 08:35:17;;;;;;;5.47;4.93;;;21.30;68.90;;;;;;6369298;22;20033;-81
2022/05/08 08:37:42;;;;;;;10.85;6.78;;;21.40;69.80;;;;;;6341540;22;20057;-81
2022/05/08 08:40:09;;;;;;;5.60;5.10;;;21.40;69.00;;;;;;6340229;22;20010;-81
2022/05/08 08:42:41;;;;;;;4.93;4.53;;;21.40;68.70;;;;;;6369955;22;20006;-81
2022/05/08 08:48:09;;;;;;;8.05;6.35;;;21.50;69.90;;;;;;6371332;22;20493;-80
2022/05/08 08:50:35;;;;;;;7.70;6.97;;;21.50;69.00;;;;;;6341996;22;20481;-81
2022/05/08 08:53:06;;;;;;;8.32;7.00;;;21.50;68.80;;;;;;6371246;22;20009;-81
2022/05/08 08:55:33;;;;;;;6.57;5.90;;;21.40;69.50;;;;;;6371517;22;19998;-81
2022/05/08 08:57:59;;;;;;;6.97;6.38;;;21.40;69.00;;;;;;6371517;22;20022;-81
2022/05/08 09:00:25;;;;;;;9.63;6.53;;;21.40;69.00;;;;;;6368776;22;20715;-81
2022/05/08 09:02:53;;;;;;;7.05;6.35;;;21.40;69.10;;;;;;6343003;22;20082;-81
2022/05/08 09:05:19;;;;;;;7.18;6.07;;;21.40;69.50;;;;;;6371416;22;19994;-81
2022/05/08 09:07:49;;;;;;;11.60;8.77;;;21.50;69.50;;;;;;6320869;22;20023;-78
2022/05/08 09:10:20;;;;;;;;;;;21.50;68.50;;;;;;6311741;22;20063;-78
2022/05/08 09:12:52;;;;;;;8.60;7.80;;;21.60;68.80;;;;;;6339592;22;19902;-78
2022/05/08 09:15:30;;;;;;;9.50;6.85;;;21.70;68.90;;;;;;6339159;22;20009;-78
2022/05/08 09:18:00;;;;;;;6.18;5.68;;;21.70;68.50;;;;;;6335352;22;20005;-78
2022/05/08 09:20:42;;;;;;;7.20;5.97;;;21.80;68.40;;;;;;6339034;22;20092;-78
2022/05/08 09:23:21;;;;;;;7.53;6.10;;;21.90;68.50;;;;;;6339381;22;20002;-78
2022/05/08 09:26:03;;;;;;;7.47;5.37;;;22.10;67.80;;;;;;6336244;22;20006;-78
2022/05/08 09:28:37;;;;;;;6.22;5.50;;;22.30;68.40;;;;;;6337674;22;19999;-78
2022/05/08 09:31:08;;;;;;;7.20;6.50;;;22.40;67.80;;;;;;6337660;22;19998;-78
2022/05/08 09:33:36;;;;;;;7.13;6.13;;;22.50;66.50;;;;;;6338240;22;20460;-78
2022/05/08 09:36:17;;;;;;;6.03;5.22;;;22.60;66.80;;;;;;6308750;22;20068;-78
2022/05/08 09:38:56;;;;;;;8.60;6.15;;;22.70;67.40;;;;;;6333966;22;20045;-78
2022/05/08 09:41:28;;;;;;;6.78;6.18;;;22.90;65.90;;;;;;6337702;22;20073;-78
2022/05/08 09:44:08;;;;;;;6.05;5.45;;;23.00;66.40;;;;;;6337616;22;19995;-79
2022/05/08 09:46:38;;;;;;;7.68;5.22;;;23.10;67.10;;;;;;6304116;22;20087;-79
2022/05/08 09:49:04;;;;;;;;;;;23.20;67.30;;;;;;6334105;22;20482;-79
2022/05/08 09:51:33;;;;;;;7.10;6.18;;;23.40;66.70;;;;;;6369943;22;19902;-79
2022/05/08 09:54:00;;;;;;;7.60;6.40;;;23.50;67.00;;;;;;6368027;22;20082;-79
2022/05/08 09:56:26;;;;;;;7.60;6.65;;;23.50;66.00;;;;;;6341792;22;20434;-79
2022/05/08 09:58:51;;;;;;;7.03;6.22;;;23.70;64.70;;;;;;6341626;22;20026;-79
2022/05/08 10:01:18;;;;;;;6.90;6.30;;;23.80;65.00;;;;;;6368041;22;20006;-79
2022/05/08 10:03:46;;;;;;;6.78;5.68;;;23.90;64.50;;;;;;6369865;22;20331;-80
2022/05/08 10:06:14;;;;;;;7.13;5.43;;;24.00;64.50;;;;;;6369532;22;19994;-79
2022/05/08 10:08:41;;;;;;;6.63;5.65;;;24.10;64.50;;;;;;6369365;22;20026;-79
2022/05/08 10:13:58;;;;;;;6.10;5.38;;;24.40;64.20;;;;;;6369642;22;20062;-81
2022/05/08 10:16:43;;;;;;;5.68;5.18;;;24.50;63.40;;;;;;6368111;22;19998;-81
2022/05/08 10:19:23;;;;;;;7.13;5.22;;;24.60;61.70;;;;;;6368684;22;20003;-80
2022/05/08 10:21:59;;;;;;;7.63;5.03;;;24.70;62.80;;;;;;6370355;22;20030;-79
2022/05/08 10:24:40;;;;;;;6.00;5.32;;;24.80;62.90;;;;;;6369312;22;20433;-80
2022/05/08 10:27:23;;;;;;;5.65;5.05;;;25.00;63.30;;;;;;6369502;22;20002;-79
2022/05/08 10:29:49;;;;;;;6.90;6.20;;;25.10;62.50;;;;;;6369513;22;19998;-80
2022/05/08 10:32:33;;;;;;;5.95;5.30;;;25.20;61.20;;;;;;6347439;22;20017;-80
2022/05/08 10:35:17;;;;;;;6.70;5.95;;;25.30;61.20;;;;;;6375627;22;20002;-80
2022/05/08 10:38:16;;;;;;;6.03;5.53;;;25.40;61.20;;;;;;6377903;22;20002;-80
2022/05/08 10:40:42;;;;;;;6.78;5.53;;;25.40;60.90;;;;;;6376883;22;20058;-79
2022/05/08 10:43:13;;;;;;;9.55;8.55;;;25.50;60.60;;;;;;6349653;22;19998;-80
2022/05/08 10:45:42;;;;;;;6.10;5.60;;;25.40;58.20;;;;;;6377514;22;20005;-80
2022/05/08 10:48:11;;;;;;;7.03;6.32;;;25.40;58.70;;;;;;6377559;22;20010;-81
2022/05/08 10:51:05;;;;;;;6.70;6.10;;;25.40;59.30;;;;;;6346966;22;20037;-81
2022/05/08 10:53:33;;;;;;;6.15;5.13;;;25.50;59.70;;;;;;6331461;22;20006;-80
2022/05/08 10:56:00;;;;;;;5.90;5.40;;;25.60;59.70;;;;;;6376470;22;20002;-80
2022/05/08 10:58:26;;;;;;;5.50;4.75;;;25.70;60.00;;;;;;6348152;22;20010;-80
2022/05/08 11:01:00;;;;;;;6.35;5.15;;;25.90;60.80;;;;;;6347253;22;20006;-82
2022/05/08 11:03:28;;;;;;;6.50;5.70;;;26.10;61.60;;;;;;6376376;22;20436;-80
2022/05/08 11:05:54;;;;;;;6.45;5.32;;;26.30;60.40;;;;;;6375887;22;19994;-79
2022/05/08 11:08:29;;;;;;;6.72;5.88;;;26.40;59.20;;;;;;6376172;22;20054;-80
2022/05/08 11:11:12;;;;;;;6.28;5.68;;;26.40;58.40;;;;;;6377020;22;20740;-79
2022/05/08 11:13:46;;;;;;;6.80;6.07;;;26.40;59.00;;;;;;6346555;22;20003;-80
2022/05/08 11:16:15;;;;;;;5.65;5.05;;;26.50;57.30;;;;;;6376915;22;20081;-80
2022/05/08 11:18:41;;;;;;;7.47;6.50;;;26.60;58.00;;;;;;6361666;22;20011;-80
2022/05/08 11:21:09;;;;;;;6.13;5.60;;;26.70;58.60;;;;;;6339793;22;20040;-80
2022/05/08 11:23:42;;;;;;;7.22;6.35;;;26.80;58.50;;;;;;6341979;22;20078;-80
2022/05/08 11:26:09;;;;;;;5.60;4.93;;;26.90;56.70;;;;;;6368977;22;20324;-79
2022/05/08 11:28:46;;;;;;;6.18;5.68;;;27.20;58.60;;;;;;6369415;22;20001;-80
2022/05/08 11:31:14;;;;;;;8.23;7.38;;;27.70;58.20;;;;;;6368072;22;20052;-80
2022/05/08 11:36:26;;;;;;;5.47;4.97;;;28.40;55.90;;;;;;6368824;22;20390;-80
2022/05/08 11:38:58;;;;;;;6.03;5.43;;;28.90;55.00;;;;;;6368648;22;20002;-80
2022/05/08 11:41:28;;;;;;;8.20;5.75;;;29.40;54.20;;;;;;6368094;22;20008;-80
2022/05/08 11:43:54;;;;;;;6.55;5.60;;;29.70;51.50;;;;;;6368555;22;19994;-80
2022/05/08 11:46:44;;;;;;;5.13;4.70;;;30.10;51.50;;;;;;6340999;22;20317;-80
2022/05/08 11:49:15;;;;;;;6.07;4.60;;;30.30;49.90;;;;;;6322028;22;20014;-79
2022/05/08 11:51:53;;;;;;;7.55;5.57;;;30.40;49.90;;;;;;6366250;22;20069;-79
2022/05/08 11:54:23;;;;;;;6.85;6.20;;;30.60;48.50;;;;;;6368684;22;20139;-80
2022/05/08 11:56:51;;;;;;;5.78;5.07;;;30.50;45.70;;;;;;6368046;22;20034;-80
2022/05/08 11:59:22;;;;;;;5.88;5.30;;;30.30;48.40;;;;;;6367403;22;20435;-80
2022/05/08 12:01:50;;;;;;;5.68;5.18;;;30.20;48.60;;;;;;6367023;22;20005;-79
2022/05/08 12:04:33;;;;;;;6.10;5.50;;;30.10;47.80;;;;;;6339466;22;19998;-79
2022/05/08 12:07:12;;;;;;;5.15;4.60;;;30.10;49.00;;;;;;6366657;22;20059;-79
2022/05/08 12:09:38;;;;;;;6.03;4.40;;;30.10;48.60;;;;;;6368522;22;20022;-79
2022/05/08 12:12:20;;;;;;;6.22;5.13;;;30.20;48.40;;;;;;6367839;22;20009;-75
2022/05/08 12:14:46;;;;;;;5.53;4.88;;;30.20;47.80;;;;;;6368135;22;19999;-75
2022/05/08 12:17:12;;;;;;;4.82;4.43;;;30.30;47.40;;;;;;6367813;22;20005;-75
2022/05/08 12:19:57;;;;;;;4.88;4.47;;;30.50;46.80;;;;;;6370749;22;20010;-75
2022/05/08 12:22:30;;;;;;;7.05;5.82;;;30.80;46.90;;;;;;6369952;22;20009;-76
2022/05/08 12:24:58;;;;;;;5.05;4.65;;;30.80;44.90;;;;;;6370427;22;19994;-75
2022/05/08 12:27:24;;;;;;;4.93;4.53;;;31.10;46.30;;;;;;6370004;22;20365;-76
2022/05/08 12:29:50;;;;;;;6.32;5.32;;;31.00;44.80;;;;;;6370623;22;20021;-77
2022/05/08 12:32:17;;;;;;;5.32;4.82;;;31.50;45.20;;;;;;6368551;22;20002;-76
2022/05/08 12:34:44;;;;;;;5.53;5.00;;;32.00;44.00;;;;;;6370679;22;19998;-76
2022/05/08 12:37:11;;;;;;;5.38;4.70;;;32.40;42.60;;;;;;6363356;22;20002;-76
2022/05/08 12:39:38;;;;;;;5.40;4.45;;;32.90;42.50;;;;;;6368818;22;20009;-76
2022/05/08 12:42:05;;;;;;;5.22;4.38;;;33.20;41.30;;;;;;6368135;22;20002;-76
2022/05/08 12:44:31;;;;;;;5.32;4.82;;;33.60;41.10;;;;;;6370657;22;20328;-76
2022/05/08 12:46:57;;;;;;;4.88;4.43;;;33.90;40.10;;;;;;6369002;22;19998;-76
2022/05/08 12:49:23;;;;;;;5.18;4.68;;;33.90;39.80;;;;;;6368777;22;20014;-76
2022/05/08 12:51:49;;;;;;;4.75;4.25;;;33.70;38.90;;;;;;6368935;22;20021;-77
2022/05/08 12:54:14;;;;;;;6.30;4.40;;;33.70;38.70;;;;;;6370211;22;19998;-76
2022/05/08 12:56:40;;;;;;;6.55;5.07;;;33.70;39.20;;;;;;6369780;22;19994;-76
2022/05/08 13:01:51;;;;;;;5.05;4.57;;;33.70;38.60;;;;;;6367977;22;20044;-76
2022/05/08 13:04:16;;;;;;;7.15;4.10;;;34.00;37.20;;;;;;6369963;22;20073;-77
2022/05/08 13:06:42;;;;;;;5.30;4.30;;;34.30;38.00;;;;;;6370814;22;20025;-77
2022/05/08 13:09:08;;;;;;;4.90;4.40;;;34.40;36.00;;;;;;6370125;22;20002;-75
2022/05/08 13:11:35;;;;;;;4.90;3.97;;;34.60;36.40;;;;;;6367912;22;20613;-77
2022/05/08 13:14:02;;;;;;;4.65;4.25;;;34.70;36.10;;;;;;6369125;22;20018;-75
2022/05/08 13:16:29;;;;;;;4.53;4.05;;;34.80;35.80;;;;;;6370534;22;19999;-74
2022/05/08 13:18:54;;;;;;;3.72;3.42;;;35.00;35.20;;;;;;6370896;22;20002;-74